DMK weather

Don Mueang International Airport
Bangkok, Bangkok Province, Thailand

Public forecast

Using degrees Celsius for public forecast. Weather courtesy of forecast.io.

Current aviation weather report (METAR) for Don Mueang International Airport

Retrieved 2019/10/15 08:30 UTC (0 seconds ago):

VTBD 150830Z 07007KT 040V110 9999 SCT035 32/23 Q1009 NOSIG

Aviation forecast (TAF) for Don Mueang International Airport

Retrieved 2019/10/15 06:36 UTC (1 hour ago):

TAF VTBD 150500Z 1506/1612 08005KT 9999 FEW030 TEMPO 1510/1514 VRB15KT 4000 TSRA FEW018CB SCT030 BKN100 BECMG 1516/1518 34005KT BECMG 1600/1602 07010KT